sensor_id;sensor_type;location;lat;lon;timestamp;P1;durP1;ratioP1;P2;durP2;ratioP2
9860;SDS011;4969;52.304;4.968;2023-06-04T00:01:27;1.52;;;1.13;;
9860;SDS011;4969;52.304;4.968;2023-06-04T00:03:54;2.20;;;1.30;;
9860;SDS011;4969;52.304;4.968;2023-06-04T00:06:20;1.55;;;1.35;;
9860;SDS011;4969;52.304;4.968;2023-06-04T00:08:47;3.08;;;1.30;;
9860;SDS011;4969;52.304;4.968;2023-06-04T00:11:14;1.73;;;1.10;;
9860;SDS011;4969;52.304;4.968;2023-06-04T00:13:42;2.17;;;1.20;;
9860;SDS011;4969;52.304;4.968;2023-06-04T00:16:09;1.17;;;1.08;;
9860;SDS011;4969;52.304;4.968;2023-06-04T00:18:36;1.30;;;1.10;;
9860;SDS011;4969;52.304;4.968;2023-06-04T00:21:02;1.30;;;1.15;;
9860;SDS011;4969;52.304;4.968;2023-06-04T00:23:29;1.20;;;1.20;;
9860;SDS011;4969;52.304;4.968;2023-06-04T00:25:55;2.22;;;1.20;;
9860;SDS011;4969;52.304;4.968;2023-06-04T00:28:22;1.75;;;1.33;;
9860;SDS011;4969;52.304;4.968;2023-06-04T00:30:50;1.40;;;1.30;;
9860;SDS011;4969;52.304;4.968;2023-06-04T00:33:16;2.22;;;1.10;;
9860;SDS011;4969;52.304;4.968;2023-06-04T00:35:43;1.80;;;1.40;;
9860;SDS011;4969;52.304;4.968;2023-06-04T00:38:10;1.52;;;1.35;;
9860;SDS011;4969;52.304;4.968;2023-06-04T00:40:36;2.33;;;1.10;;
9860;SDS011;4969;52.304;4.968;2023-06-04T00:43:03;2.03;;;1.05;;
9860;SDS011;4969;52.304;4.968;2023-06-04T00:45:30;1.45;;;1.05;;
9860;SDS011;4969;52.304;4.968;2023-06-04T00:47:58;1.75;;;1.00;;
9860;SDS011;4969;52.304;4.968;2023-06-04T00:50:25;3.25;;;1.65;;
9860;SDS011;4969;52.304;4.968;2023-06-04T00:52:52;1.48;;;1.10;;
9860;SDS011;4969;52.304;4.968;2023-06-04T00:55:18;1.00;;;1.00;;
9860;SDS011;4969;52.304;4.968;2023-06-04T00:57:45;1.60;;;1.27;;
9860;SDS011;4969;52.304;4.968;2023-06-04T01:00:11;2.25;;;1.10;;
9860;SDS011;4969;52.304;4.968;2023-06-04T01:02:39;1.90;;;1.08;;
9860;SDS011;4969;52.304;4.968;2023-06-04T01:05:11;1.17;;;1.10;;
9860;SDS011;4969;52.304;4.968;2023-06-04T01:07:43;1.10;;;1.10;;
9860;SDS011;4969;52.304;4.968;2023-06-04T01:10:11;1.55;;;1.30;;
9860;SDS011;4969;52.304;4.968;2023-06-04T01:12:39;4.93;;;2.95;;
9860;SDS011;4969;52.304;4.968;2023-06-04T01:15:06;2.10;;;1.30;;
9860;SDS011;4969;52.304;4.968;2023-06-04T01:17:35;1.00;;;1.00;;
9860;SDS011;4969;52.304;4.968;2023-06-04T01:20:13;1.58;;;1.30;;
9860;SDS011;4969;52.304;4.968;2023-06-04T01:22:48;1.83;;;1.40;;
9860;SDS011;4969;52.304;4.968;2023-06-04T01:25:31;1.95;;;1.33;;
9860;SDS011;4969;52.304;4.968;2023-06-04T01:27:59;1.48;;;1.05;;
9860;SDS011;4969;52.304;4.968;2023-06-04T01:30:29;1.35;;;1.23;;
9860;SDS011;4969;52.304;4.968;2023-06-04T01:32:57;1.98;;;1.35;;
9860;SDS011;4969;52.304;4.968;2023-06-04T01:35:26;1.20;;;1.13;;
9860;SDS011;4969;52.304;4.968;2023-06-04T01:37:53;2.30;;;1.50;;
9860;SDS011;4969;52.304;4.968;2023-06-04T01:40:20;2.17;;;1.20;;
9860;SDS011;4969;52.304;4.968;2023-06-04T01:42:47;3.33;;;1.20;;
9860;SDS011;4969;52.304;4.968;2023-06-04T01:45:14;1.08;;;1.08;;
9860;SDS011;4969;52.304;4.968;2023-06-04T01:47:40;1.55;;;1.10;;
9860;SDS011;4969;52.304;4.968;2023-06-04T01:50:07;2.63;;;1.00;;
9860;SDS011;4969;52.304;4.968;2023-06-04T01:52:36;2.30;;;1.00;;
9860;SDS011;4969;52.304;4.968;2023-06-04T01:55:03;4.30;;;1.25;;
9860;SDS011;4969;52.304;4.968;2023-06-04T01:57:29;1.92;;;1.15;;
9860;SDS011;4969;52.304;4.968;2023-06-04T01:59:56;1.92;;;1.20;;
9860;SDS011;4969;52.304;4.968;2023-06-04T02:02:23;1.70;;;1.10;;
9860;SDS011;4969;52.304;4.968;2023-06-04T02:04:50;1.67;;;1.33;;
9860;SDS011;4969;52.304;4.968;2023-06-04T02:07:18;2.05;;;1.60;;
9860;SDS011;4969;52.304;4.968;2023-06-04T02:09:47;1.30;;;1.20;;
9860;SDS011;4969;52.304;4.968;2023-06-04T02:12:13;1.50;;;1.38;;
9860;SDS011;4969;52.304;4.968;2023-06-04T02:14:40;2.47;;;1.45;;
9860;SDS011;4969;52.304;4.968;2023-06-04T02:17:08;2.88;;;1.63;;
9860;SDS011;4969;52.304;4.968;2023-06-04T02:19:37;0.90;;;0.90;;
9860;SDS011;4969;52.304;4.968;2023-06-04T02:22:04;1.40;;;1.30;;
9860;SDS011;4969;52.304;4.968;2023-06-04T02:24:31;1.98;;;1.63;;
9860;SDS011;4969;52.304;4.968;2023-06-04T02:26:59;3.55;;;1.45;;
9860;SDS011;4969;52.304;4.968;2023-06-04T02:29:26;2.28;;;1.25;;
9860;SDS011;4969;52.304;4.968;2023-06-04T02:31:53;1.45;;;1.35;;
9860;SDS011;4969;52.304;4.968;2023-06-04T02:34:19;1.38;;;1.27;;
9860;SDS011;4969;52.304;4.968;2023-06-04T02:36:46;1.75;;;1.05;;
9860;SDS011;4969;52.304;4.968;2023-06-04T02:39:13;1.63;;;1.48;;
9860;SDS011;4969;52.304;4.968;2023-06-04T02:41:40;1.20;;;1.10;;
9860;SDS011;4969;52.304;4.968;2023-06-04T02:44:08;2.20;;;1.38;;
9860;SDS011;4969;52.304;4.968;2023-06-04T02:46:34;2.13;;;1.40;;
9860;SDS011;4969;52.304;4.968;2023-06-04T02:49:01;1.30;;;0.95;;
9860;SDS011;4969;52.304;4.968;2023-06-04T02:51:27;1.80;;;1.17;;
9860;SDS011;4969;52.304;4.968;2023-06-04T02:53:54;1.55;;;1.10;;
9860;SDS011;4969;52.304;4.968;2023-06-04T02:56:21;1.55;;;1.23;;
9860;SDS011;4969;52.304;4.968;2023-06-04T02:58:50;1.75;;;1.20;;
9860;SDS011;4969;52.304;4.968;2023-06-04T03:01:19;1.45;;;1.30;;
9860;SDS011;4969;52.304;4.968;2023-06-04T03:03:46;1.90;;;1.45;;
9860;SDS011;4969;52.304;4.968;2023-06-04T03:06:13;1.50;;;1.35;;
9860;SDS011;4969;52.304;4.968;2023-06-04T03:08:41;5.45;;;1.70;;
9860;SDS011;4969;52.304;4.968;2023-06-04T03:11:07;2.00;;;1.30;;
9860;SDS011;4969;52.304;4.968;2023-06-04T03:13:34;3.25;;;1.50;;
9860;SDS011;4969;52.304;4.968;2023-06-04T03:16:01;3.08;;;1.17;;
9860;SDS011;4969;52.304;4.968;2023-06-04T03:18:29;1.42;;;1.10;;
9860;SDS011;4969;52.304;4.968;2023-06-04T03:20:57;1.42;;;1.02;;
9860;SDS011;4969;52.304;4.968;2023-06-04T03:23:24;1.02;;;0.93;;
9860;SDS011;4969;52.304;4.968;2023-06-04T03:25:51;1.92;;;0.95;;
9860;SDS011;4969;52.304;4.968;2023-06-04T03:28:17;2.00;;;1.55;;
9860;SDS011;4969;52.304;4.968;2023-06-04T03:30:44;2.70;;;1.55;;
9860;SDS011;4969;52.304;4.968;2023-06-04T03:33:10;2.33;;;1.40;;
9860;SDS011;4969;52.304;4.968;2023-06-04T03:35:39;4.65;;;1.58;;
9860;SDS011;4969;52.304;4.968;2023-06-04T03:38:06;1.27;;;1.17;;
9860;SDS011;4969;52.304;4.968;2023-06-04T03:40:33;1.98;;;1.15;;
9860;SDS011;4969;52.304;4.968;2023-06-04T03:43:00;1.45;;;1.35;;
9860;SDS011;4969;52.304;4.968;2023-06-04T03:45:29;1.65;;;1.20;;
9860;SDS011;4969;52.304;4.968;2023-06-04T03:47:55;2.45;;;1.80;;
9860;SDS011;4969;52.304;4.968;2023-06-04T03:50:22;2.03;;;1.65;;
9860;SDS011;4969;52.304;4.968;2023-06-04T03:52:50;3.08;;;1.50;;
9860;SDS011;4969;52.304;4.968;2023-06-04T03:55:16;2.85;;;1.50;;
9860;SDS011;4969;52.304;4.968;2023-06-04T03:57:43;2.22;;;1.52;;
9860;SDS011;4969;52.304;4.968;2023-06-04T04:00:10;1.75;;;1.27;;
9860;SDS011;4969;52.304;4.968;2023-06-04T04:02:38;2.15;;;1.10;;
9860;SDS011;4969;52.304;4.968;2023-06-04T04:05:05;2.40;;;1.30;;
9860;SDS011;4969;52.304;4.968;2023-06-04T04:07:32;2.15;;;1.23;;
9860;SDS011;4969;52.304;4.968;2023-06-04T04:10:00;1.55;;;1.45;;
9860;SDS011;4969;52.304;4.968;2023-06-04T04:12:27;1.40;;;1.30;;
9860;SDS011;4969;52.304;4.968;2023-06-04T04:14:54;2.33;;;1.50;;
9860;SDS011;4969;52.304;4.968;2023-06-04T04:17:21;1.55;;;1.20;;
9860;SDS011;4969;52.304;4.968;2023-06-04T04:19:47;3.25;;;1.40;;
9860;SDS011;4969;52.304;4.968;2023-06-04T04:22:14;2.50;;;1.40;;
9860;SDS011;4969;52.304;4.968;2023-06-04T04:24:42;1.50;;;1.17;;
9860;SDS011;4969;52.304;4.968;2023-06-04T04:27:10;2.33;;;1.55;;
9860;SDS011;4969;52.304;4.968;2023-06-04T04:29:37;2.58;;;1.40;;
9860;SDS011;4969;52.304;4.968;2023-06-04T04:32:04;2.03;;;1.20;;
9860;SDS011;4969;52.304;4.968;2023-06-04T04:34:36;2.88;;;1.55;;
9860;SDS011;4969;52.304;4.968;2023-06-04T04:37:04;4.93;;;1.90;;
9860;SDS011;4969;52.304;4.968;2023-06-04T04:39:33;4.05;;;1.70;;
9860;SDS011;4969;52.304;4.968;2023-06-04T04:42:01;4.43;;;1.90;;
9860;SDS011;4969;52.304;4.968;2023-06-04T04:44:29;5.32;;;1.55;;
9860;SDS011;4969;52.304;4.968;2023-06-04T04:46:55;3.08;;;1.73;;
9860;SDS011;4969;52.304;4.968;2023-06-04T04:49:22;2.50;;;1.70;;
9860;SDS011;4969;52.304;4.968;2023-06-04T04:51:48;2.53;;;1.38;;
9860;SDS011;4969;52.304;4.968;2023-06-04T04:54:15;1.63;;;1.40;;
9860;SDS011;4969;52.304;4.968;2023-06-04T04:56:41;3.65;;;1.80;;
9860;SDS011;4969;52.304;4.968;2023-06-04T04:59:08;3.08;;;1.92;;
9860;SDS011;4969;52.304;4.968;2023-06-04T05:01:36;2.58;;;1.85;;
9860;SDS011;4969;52.304;4.968;2023-06-04T05:04:02;3.40;;;1.33;;
9860;SDS011;4969;52.304;4.968;2023-06-04T05:06:29;2.78;;;1.65;;
9860;SDS011;4969;52.304;4.968;2023-06-04T05:08:56;3.28;;;1.50;;
9860;SDS011;4969;52.304;4.968;2023-06-04T05:11:22;2.85;;;1.70;;
9860;SDS011;4969;52.304;4.968;2023-06-04T05:13:49;5.75;;;2.10;;
9860;SDS011;4969;52.304;4.968;2023-06-04T05:16:15;2.30;;;1.63;;
9860;SDS011;4969;52.304;4.968;2023-06-04T05:18:46;3.42;;;2.03;;
9860;SDS011;4969;52.304;4.968;2023-06-04T05:21:16;2.78;;;1.40;;
9860;SDS011;4969;52.304;4.968;2023-06-04T05:23:43;4.40;;;1.83;;
9860;SDS011;4969;52.304;4.968;2023-06-04T05:26:13;5.32;;;1.83;;
9860;SDS011;4969;52.304;4.968;2023-06-04T05:28:40;3.78;;;1.80;;
9860;SDS011;4969;52.304;4.968;2023-06-04T05:31:08;4.93;;;2.00;;
9860;SDS011;4969;52.304;4.968;2023-06-04T05:33:38;4.90;;;2.40;;
9860;SDS011;4969;52.304;4.968;2023-06-04T05:36:06;2.63;;;1.88;;
9860;SDS011;4969;52.304;4.968;2023-06-04T05:38:32;4.03;;;2.20;;
9860;SDS011;4969;52.304;4.968;2023-06-04T05:41:00;5.13;;;2.00;;
9860;SDS011;4969;52.304;4.968;2023-06-04T05:43:27;2.88;;;1.73;;
9860;SDS011;4969;52.304;4.968;2023-06-04T05:45:54;7.40;;;2.03;;
9860;SDS011;4969;52.304;4.968;2023-06-04T05:48:20;3.78;;;1.95;;
9860;SDS011;4969;52.304;4.968;2023-06-04T05:50:47;3.45;;;1.90;;
9860;SDS011;4969;52.304;4.968;2023-06-04T05:53:15;5.47;;;2.25;;
9860;SDS011;4969;52.304;4.968;2023-06-04T05:55:42;5.90;;;2.38;;
9860;SDS011;4969;52.304;4.968;2023-06-04T05:58:08;7.10;;;2.83;;
9860;SDS011;4969;52.304;4.968;2023-06-04T06:00:35;5.90;;;2.45;;
9860;SDS011;4969;52.304;4.968;2023-06-04T06:03:02;4.13;;;2.33;;
9860;SDS011;4969;52.304;4.968;2023-06-04T06:05:31;8.27;;;2.60;;
9860;SDS011;4969;52.304;4.968;2023-06-04T06:07:57;3.85;;;2.55;;
9860;SDS011;4969;52.304;4.968;2023-06-04T06:10:25;5.35;;;2.80;;
9860;SDS011;4969;52.304;4.968;2023-06-04T06:12:52;5.70;;;2.95;;
9860;SDS011;4969;52.304;4.968;2023-06-04T06:15:18;3.92;;;2.80;;
9860;SDS011;4969;52.304;4.968;2023-06-04T06:17:45;7.07;;;2.40;;
9860;SDS011;4969;52.304;4.968;2023-06-04T06:20:12;6.72;;;2.80;;
9860;SDS011;4969;52.304;4.968;2023-06-04T06:22:42;3.88;;;2.45;;
9860;SDS011;4969;52.304;4.968;2023-06-04T06:25:09;4.15;;;2.47;;
9860;SDS011;4969;52.304;4.968;2023-06-04T06:27:39;5.10;;;2.45;;
9860;SDS011;4969;52.304;4.968;2023-06-04T06:30:06;2.75;;;2.05;;
9860;SDS011;4969;52.304;4.968;2023-06-04T06:32:33;4.20;;;2.45;;
9860;SDS011;4969;52.304;4.968;2023-06-04T06:35:00;5.00;;;2.20;;
9860;SDS011;4969;52.304;4.968;2023-06-04T06:37:27;5.30;;;2.40;;
9860;SDS011;4969;52.304;4.968;2023-06-04T06:39:53;2.47;;;1.90;;
9860;SDS011;4969;52.304;4.968;2023-06-04T06:42:20;3.90;;;2.13;;
9860;SDS011;4969;52.304;4.968;2023-06-04T06:44:48;5.88;;;2.58;;
9860;SDS011;4969;52.304;4.968;2023-06-04T06:47:15;3.28;;;2.00;;
9860;SDS011;4969;52.304;4.968;2023-06-04T06:49:42;3.80;;;2.30;;
9860;SDS011;4969;52.304;4.968;2023-06-04T06:52:09;3.63;;;2.10;;
9860;SDS011;4969;52.304;4.968;2023-06-04T06:54:35;5.28;;;2.25;;
9860;SDS011;4969;52.304;4.968;2023-06-04T06:57:02;4.55;;;2.17;;
9860;SDS011;4969;52.304;4.968;2023-06-04T06:59:33;3.72;;;1.90;;
9860;SDS011;4969;52.304;4.968;2023-06-04T07:02:02;4.93;;;2.42;;
9860;SDS011;4969;52.304;4.968;2023-06-04T07:04:28;7.28;;;2.53;;
9860;SDS011;4969;52.304;4.968;2023-06-04T07:06:55;4.82;;;2.33;;
9860;SDS011;4969;52.304;4.968;2023-06-04T07:09:22;5.15;;;2.20;;
9860;SDS011;4969;52.304;4.968;2023-06-04T07:11:48;3.42;;;2.42;;
9860;SDS011;4969;52.304;4.968;2023-06-04T07:14:15;3.58;;;2.38;;
9860;SDS011;4969;52.304;4.968;2023-06-04T07:16:41;4.95;;;2.30;;
9860;SDS011;4969;52.304;4.968;2023-06-04T07:19:09;5.20;;;2.50;;
9860;SDS011;4969;52.304;4.968;2023-06-04T07:21:36;5.25;;;2.50;;
9860;SDS011;4969;52.304;4.968;2023-06-04T07:24:02;4.80;;;2.30;;
9860;SDS011;4969;52.304;4.968;2023-06-04T07:26:29;6.25;;;2.78;;
9860;SDS011;4969;52.304;4.968;2023-06-04T07:28:56;6.60;;;2.85;;
9860;SDS011;4969;52.304;4.968;2023-06-04T07:31:23;4.63;;;2.50;;
9860;SDS011;4969;52.304;4.968;2023-06-04T07:33:49;7.95;;;2.45;;
9860;SDS011;4969;52.304;4.968;2023-06-04T07:36:17;5.72;;;2.30;;
9860;SDS011;4969;52.304;4.968;2023-06-04T07:38:44;5.00;;;2.78;;
9860;SDS011;4969;52.304;4.968;2023-06-04T07:41:10;5.80;;;2.70;;
9860;SDS011;4969;52.304;4.968;2023-06-04T07:43:37;4.47;;;2.30;;
9860;SDS011;4969;52.304;4.968;2023-06-04T07:46:03;4.90;;;2.60;;
9860;SDS011;4969;52.304;4.968;2023-06-04T07:48:31;5.22;;;2.45;;
9860;SDS011;4969;52.304;4.968;2023-06-04T07:50:58;4.30;;;2.65;;
9860;SDS011;4969;52.304;4.968;2023-06-04T07:53:25;6.28;;;2.38;;
9860;SDS011;4969;52.304;4.968;2023-06-04T07:55:52;5.10;;;2.28;;
9860;SDS011;4969;52.304;4.968;2023-06-04T07:58:20;6.68;;;2.13;;
9860;SDS011;4969;52.304;4.968;2023-06-04T08:00:46;7.05;;;2.70;;
9860;SDS011;4969;52.304;4.968;2023-06-04T08:03:13;5.70;;;2.28;;
9860;SDS011;4969;52.304;4.968;2023-06-04T08:05:40;7.00;;;2.60;;
9860;SDS011;4969;52.304;4.968;2023-06-04T08:08:07;4.03;;;2.60;;
9860;SDS011;4969;52.304;4.968;2023-06-04T08:10:35;5.82;;;2.50;;
9860;SDS011;4969;52.304;4.968;2023-06-04T08:13:02;4.75;;;2.00;;
9860;SDS011;4969;52.304;4.968;2023-06-04T08:15:28;5.88;;;2.40;;
9860;SDS011;4969;52.304;4.968;2023-06-04T08:17:55;5.03;;;2.50;;
9860;SDS011;4969;52.304;4.968;2023-06-04T08:20:21;5.60;;;2.17;;
9860;SDS011;4969;52.304;4.968;2023-06-04T08:22:48;3.58;;;2.50;;
9860;SDS011;4969;52.304;4.968;2023-06-04T08:25:15;6.13;;;2.50;;
9860;SDS011;4969;52.304;4.968;2023-06-04T08:27:43;8.55;;;2.78;;
9860;SDS011;4969;52.304;4.968;2023-06-04T08:30:10;6.93;;;2.40;;
9860;SDS011;4969;52.304;4.968;2023-06-04T08:32:37;4.45;;;2.00;;
9860;SDS011;4969;52.304;4.968;2023-06-04T08:35:05;4.68;;;2.35;;
9860;SDS011;4969;52.304;4.968;2023-06-04T08:37:32;3.28;;;2.30;;
9860;SDS011;4969;52.304;4.968;2023-06-04T08:39:59;9.00;;;2.38;;
9860;SDS011;4969;52.304;4.968;2023-06-04T08:42:27;4.10;;;2.40;;
9860;SDS011;4969;52.304;4.968;2023-06-04T08:44:57;5.13;;;2.70;;
9860;SDS011;4969;52.304;4.968;2023-06-04T08:47:25;6.15;;;2.80;;
9860;SDS011;4969;52.304;4.968;2023-06-04T08:49:52;4.82;;;2.58;;
9860;SDS011;4969;52.304;4.968;2023-06-04T08:52:20;4.90;;;2.85;;
9860;SDS011;4969;52.304;4.968;2023-06-04T08:54:48;6.38;;;3.03;;
9860;SDS011;4969;52.304;4.968;2023-06-04T08:57:15;4.32;;;2.30;;
9860;SDS011;4969;52.304;4.968;2023-06-04T08:59:44;6.05;;;3.17;;
9860;SDS011;4969;52.304;4.968;2023-06-04T09:02:12;8.82;;;3.13;;
9860;SDS011;4969;52.304;4.968;2023-06-04T09:04:40;4.57;;;2.80;;
9860;SDS011;4969;52.304;4.968;2023-06-04T09:07:08;5.97;;;3.00;;
9860;SDS011;4969;52.304;4.968;2023-06-04T09:09:37;8.77;;;3.33;;
9860;SDS011;4969;52.304;4.968;2023-06-04T09:12:05;5.63;;;3.13;;
9860;SDS011;4969;52.304;4.968;2023-06-04T09:14:36;5.55;;;3.00;;
9860;SDS011;4969;52.304;4.968;2023-06-04T09:17:02;5.40;;;2.95;;
9860;SDS011;4969;52.304;4.968;2023-06-04T09:19:30;6.03;;;3.00;;
9860;SDS011;4969;52.304;4.968;2023-06-04T09:21:57;4.35;;;2.63;;
9860;SDS011;4969;52.304;4.968;2023-06-04T09:24:26;4.93;;;3.10;;
9860;SDS011;4969;52.304;4.968;2023-06-04T09:27:09;5.43;;;3.00;;
9860;SDS011;4969;52.304;4.968;2023-06-04T09:29:36;4.97;;;3.03;;
9860;SDS011;4969;52.304;4.968;2023-06-04T09:32:03;3.17;;;2.63;;
9860;SDS011;4969;52.304;4.968;2023-06-04T09:34:31;5.15;;;2.95;;
9860;SDS011;4969;52.304;4.968;2023-06-04T09:36:58;6.00;;;2.90;;
9860;SDS011;4969;52.304;4.968;2023-06-04T09:39:24;6.38;;;3.10;;
9860;SDS011;4969;52.304;4.968;2023-06-04T09:41:58;4.40;;;2.60;;
9860;SDS011;4969;52.304;4.968;2023-06-04T09:44:25;6.18;;;2.95;;
9860;SDS011;4969;52.304;4.968;2023-06-04T09:46:55;4.78;;;3.08;;
9860;SDS011;4969;52.304;4.968;2023-06-04T09:49:22;4.38;;;2.45;;
9860;SDS011;4969;52.304;4.968;2023-06-04T09:51:50;4.38;;;2.42;;
9860;SDS011;4969;52.304;4.968;2023-06-04T09:54:17;4.75;;;2.42;;
9860;SDS011;4969;52.304;4.968;2023-06-04T09:56:43;4.50;;;2.78;;
9860;SDS011;4969;52.304;4.968;2023-06-04T09:59:10;3.70;;;2.30;;
9860;SDS011;4969;52.304;4.968;2023-06-04T10:01:39;4.28;;;2.40;;
9860;SDS011;4969;52.304;4.968;2023-06-04T10:04:07;3.40;;;2.35;;
9860;SDS011;4969;52.304;4.968;2023-06-04T10:06:36;5.47;;;2.67;;
9860;SDS011;4969;52.304;4.968;2023-06-04T10:09:07;3.88;;;2.20;;
9860;SDS011;4969;52.304;4.968;2023-06-04T10:11:35;5.15;;;2.40;;
9860;SDS011;4969;52.304;4.968;2023-06-04T10:14:07;5.57;;;2.53;;
9860;SDS011;4969;52.304;4.968;2023-06-04T10:16:37;4.82;;;2.30;;
9860;SDS011;4969;52.304;4.968;2023-06-04T10:19:04;3.63;;;2.40;;
9860;SDS011;4969;52.304;4.968;2023-06-04T10:21:33;4.72;;;2.60;;
9860;SDS011;4969;52.304;4.968;2023-06-04T10:24:01;3.92;;;2.33;;
9860;SDS011;4969;52.304;4.968;2023-06-04T10:26:29;3.60;;;2.22;;
9860;SDS011;4969;52.304;4.968;2023-06-04T10:28:56;2.78;;;2.00;;
9860;SDS011;4969;52.304;4.968;2023-06-04T10:31:23;2.83;;;2.00;;
9860;SDS011;4969;52.304;4.968;2023-06-04T10:33:53;2.60;;;2.35;;
9860;SDS011;4969;52.304;4.968;2023-06-04T10:36:20;5.57;;;2.40;;
9860;SDS011;4969;52.304;4.968;2023-06-04T10:38:48;4.53;;;2.40;;
9860;SDS011;4969;52.304;4.968;2023-06-04T10:41:16;4.93;;;2.50;;
9860;SDS011;4969;52.304;4.968;2023-06-04T10:43:45;3.17;;;2.80;;
9860;SDS011;4969;52.304;4.968;2023-06-04T10:46:14;7.28;;;2.95;;
9860;SDS011;4969;52.304;4.968;2023-06-04T10:48:45;4.30;;;2.78;;
9860;SDS011;4969;52.304;4.968;2023-06-04T10:51:13;5.85;;;2.67;;
9860;SDS011;4969;52.304;4.968;2023-06-04T10:53:39;3.40;;;2.25;;
9860;SDS011;4969;52.304;4.968;2023-06-04T10:56:06;4.10;;;2.47;;
9860;SDS011;4969;52.304;4.968;2023-06-04T10:58:33;6.97;;;2.30;;
9860;SDS011;4969;52.304;4.968;2023-06-04T11:01:01;5.32;;;2.38;;
9860;SDS011;4969;52.304;4.968;2023-06-04T11:03:35;2.92;;;2.08;;
9860;SDS011;4969;52.304;4.968;2023-06-04T11:06:02;4.10;;;1.88;;
9860;SDS011;4969;52.304;4.968;2023-06-04T11:08:40;5.03;;;2.15;;
9860;SDS011;4969;52.304;4.968;2023-06-04T11:11:10;2.47;;;1.88;;
9860;SDS011;4969;52.304;4.968;2023-06-04T11:13:37;6.07;;;2.10;;
9860;SDS011;4969;52.304;4.968;2023-06-04T11:16:12;2.92;;;1.88;;
9860;SDS011;4969;52.304;4.968;2023-06-04T11:18:41;2.65;;;1.52;;
9860;SDS011;4969;52.304;4.968;2023-06-04T11:21:08;2.55;;;1.77;;
9860;SDS011;4969;52.304;4.968;2023-06-04T11:23:36;3.35;;;2.10;;
9860;SDS011;4969;52.304;4.968;2023-06-04T11:26:03;1.98;;;1.52;;
9860;SDS011;4969;52.304;4.968;2023-06-04T11:28:29;3.33;;;2.00;;
9860;SDS011;4969;52.304;4.968;2023-06-04T11:30:56;3.70;;;1.77;;
9860;SDS011;4969;52.304;4.968;2023-06-04T11:33:25;3.13;;;1.60;;
9860;SDS011;4969;52.304;4.968;2023-06-04T11:35:51;5.22;;;1.90;;
9860;SDS011;4969;52.304;4.968;2023-06-04T11:38:18;3.70;;;1.88;;
9860;SDS011;4969;52.304;4.968;2023-06-04T11:40:51;2.03;;;1.60;;
9860;SDS011;4969;52.304;4.968;2023-06-04T11:43:21;3.00;;;1.60;;
9860;SDS011;4969;52.304;4.968;2023-06-04T11:45:49;1.83;;;1.30;;
9860;SDS011;4969;52.304;4.968;2023-06-04T11:48:16;2.60;;;1.75;;
9860;SDS011;4969;52.304;4.968;2023-06-04T11:50:44;2.97;;;1.58;;
9860;SDS011;4969;52.304;4.968;2023-06-04T11:53:12;2.40;;;1.30;;
9860;SDS011;4969;52.304;4.968;2023-06-04T11:55:38;2.08;;;1.55;;
9860;SDS011;4969;52.304;4.968;2023-06-04T11:58:06;2.50;;;1.67;;
9860;SDS011;4969;52.304;4.968;2023-06-04T12:00:33;1.92;;;1.30;;
9860;SDS011;4969;52.304;4.968;2023-06-04T12:02:59;1.90;;;1.40;;
9860;SDS011;4969;52.304;4.968;2023-06-04T12:05:28;3.22;;;1.80;;
9860;SDS011;4969;52.304;4.968;2023-06-04T12:08:04;3.28;;;1.73;;
9860;SDS011;4969;52.304;4.968;2023-06-04T12:10:36;3.45;;;1.60;;
9860;SDS011;4969;52.304;4.968;2023-06-04T12:13:03;3.20;;;2.10;;
9860;SDS011;4969;52.304;4.968;2023-06-04T12:15:30;2.45;;;1.58;;
9860;SDS011;4969;52.304;4.968;2023-06-04T12:17:57;3.35;;;1.60;;
9860;SDS011;4969;52.304;4.968;2023-06-04T12:20:31;2.15;;;1.50;;
9860;SDS011;4969;52.304;4.968;2023-06-04T12:22:59;3.38;;;1.63;;
9860;SDS011;4969;52.304;4.968;2023-06-04T12:25:28;1.67;;;1.33;;
9860;SDS011;4969;52.304;4.968;2023-06-04T12:27:55;4.22;;;1.90;;
9860;SDS011;4969;52.304;4.968;2023-06-04T12:30:22;2.00;;;1.75;;
9860;SDS011;4969;52.304;4.968;2023-06-04T12:32:49;2.83;;;1.70;;
9860;SDS011;4969;52.304;4.968;2023-06-04T12:35:15;2.92;;;1.65;;
9860;SDS011;4969;52.304;4.968;2023-06-04T12:37:42;5.47;;;2.00;;
9860;SDS011;4969;52.304;4.968;2023-06-04T12:40:09;2.58;;;1.60;;
9860;SDS011;4969;52.304;4.968;2023-06-04T12:42:38;2.60;;;1.40;;
9860;SDS011;4969;52.304;4.968;2023-06-04T12:45:05;2.05;;;1.30;;
9860;SDS011;4969;52.304;4.968;2023-06-04T12:47:32;4.38;;;1.70;;
9860;SDS011;4969;52.304;4.968;2023-06-04T12:49:59;4.43;;;1.77;;
9860;SDS011;4969;52.304;4.968;2023-06-04T12:52:26;4.00;;;1.60;;
9860;SDS011;4969;52.304;4.968;2023-06-04T12:54:53;4.20;;;1.90;;
9860;SDS011;4969;52.304;4.968;2023-06-04T12:57:19;1.85;;;1.60;;
9860;SDS011;4969;52.304;4.968;2023-06-04T12:59:47;4.68;;;1.80;;
9860;SDS011;4969;52.304;4.968;2023-06-04T13:02:14;2.70;;;1.83;;
9860;SDS011;4969;52.304;4.968;2023-06-04T13:04:40;4.30;;;1.90;;
9860;SDS011;4969;52.304;4.968;2023-06-04T13:07:09;5.57;;;2.13;;
9860;SDS011;4969;52.304;4.968;2023-06-04T13:09:36;2.40;;;1.67;;
9860;SDS011;4969;52.304;4.968;2023-06-04T13:12:02;3.15;;;1.90;;
9860;SDS011;4969;52.304;4.968;2023-06-04T13:14:31;3.20;;;1.83;;
9860;SDS011;4969;52.304;4.968;2023-06-04T13:17:00;3.72;;;2.20;;
9860;SDS011;4969;52.304;4.968;2023-06-04T13:19:27;3.22;;;2.10;;
9860;SDS011;4969;52.304;4.968;2023-06-04T13:21:53;2.85;;;1.77;;
9860;SDS011;4969;52.304;4.968;2023-06-04T13:24:20;3.78;;;1.95;;
9860;SDS011;4969;52.304;4.968;2023-06-04T13:26:46;1.92;;;1.70;;
9860;SDS011;4969;52.304;4.968;2023-06-04T13:29:13;3.15;;;1.90;;
9860;SDS011;4969;52.304;4.968;2023-06-04T13:31:41;3.50;;;2.00;;
9860;SDS011;4969;52.304;4.968;2023-06-04T13:34:09;3.90;;;2.35;;
9860;SDS011;4969;52.304;4.968;2023-06-04T13:36:35;4.07;;;2.28;;
9860;SDS011;4969;52.304;4.968;2023-06-04T13:39:02;3.67;;;2.20;;
9860;SDS011;4969;52.304;4.968;2023-06-04T13:41:29;3.42;;;2.10;;
9860;SDS011;4969;52.304;4.968;2023-06-04T13:43:55;3.85;;;1.70;;
9860;SDS011;4969;52.304;4.968;2023-06-04T13:46:22;3.55;;;1.77;;
9860;SDS011;4969;52.304;4.968;2023-06-04T13:48:48;5.82;;;3.20;;
9860;SDS011;4969;52.304;4.968;2023-06-04T13:51:16;2.33;;;2.10;;
9860;SDS011;4969;52.304;4.968;2023-06-04T13:53:43;3.08;;;2.22;;
9860;SDS011;4969;52.304;4.968;2023-06-04T13:56:09;3.33;;;2.35;;
9860;SDS011;4969;52.304;4.968;2023-06-04T13:58:36;3.95;;;2.53;;
9860;SDS011;4969;52.304;4.968;2023-06-04T14:01:03;3.92;;;3.00;;
9860;SDS011;4969;52.304;4.968;2023-06-04T14:03:30;2.10;;;1.83;;
9860;SDS011;4969;52.304;4.968;2023-06-04T14:05:56;6.82;;;2.42;;
9860;SDS011;4969;52.304;4.968;2023-06-04T14:08:24;3.50;;;2.22;;
9860;SDS011;4969;52.304;4.968;2023-06-04T14:10:50;3.92;;;2.05;;
9860;SDS011;4969;52.304;4.968;2023-06-04T14:13:20;4.35;;;2.25;;
9860;SDS011;4969;52.304;4.968;2023-06-04T14:15:46;5.03;;;2.20;;
9860;SDS011;4969;52.304;4.968;2023-06-04T14:18:13;3.20;;;1.95;;
9860;SDS011;4969;52.304;4.968;2023-06-04T14:20:39;4.50;;;2.00;;
9860;SDS011;4969;52.304;4.968;2023-06-04T14:23:06;4.55;;;2.20;;
9860;SDS011;4969;52.304;4.968;2023-06-04T14:25:34;4.07;;;2.70;;
9860;SDS011;4969;52.304;4.968;2023-06-04T14:28:01;5.00;;;2.47;;
9860;SDS011;4969;52.304;4.968;2023-06-04T14:30:28;5.47;;;2.30;;
9860;SDS011;4969;52.304;4.968;2023-06-04T14:32:54;8.10;;;2.40;;
9860;SDS011;4969;52.304;4.968;2023-06-04T14:35:21;3.20;;;1.98;;
9860;SDS011;4969;52.304;4.968;2023-06-04T14:37:48;4.80;;;2.28;;
9860;SDS011;4969;52.304;4.968;2023-06-04T14:40:14;2.78;;;1.95;;
9860;SDS011;4969;52.304;4.968;2023-06-04T14:42:43;6.20;;;2.25;;
9860;SDS011;4969;52.304;4.968;2023-06-04T14:45:09;4.68;;;2.10;;
9860;SDS011;4969;52.304;4.968;2023-06-04T14:47:36;4.22;;;1.92;;
9860;SDS011;4969;52.304;4.968;2023-06-04T14:50:03;3.15;;;1.95;;
9860;SDS011;4969;52.304;4.968;2023-06-04T14:52:30;5.07;;;1.88;;
9860;SDS011;4969;52.304;4.968;2023-06-04T14:54:57;2.72;;;2.25;;
9860;SDS011;4969;52.304;4.968;2023-06-04T14:57:23;4.15;;;2.33;;
9860;SDS011;4969;52.304;4.968;2023-06-04T14:59:51;2.25;;;2.05;;
9860;SDS011;4969;52.304;4.968;2023-06-04T15:02:18;3.45;;;2.08;;
9860;SDS011;4969;52.304;4.968;2023-06-04T15:04:45;2.63;;;2.03;;
9860;SDS011;4969;52.304;4.968;2023-06-04T15:07:12;6.78;;;2.58;;
9860;SDS011;4969;52.304;4.968;2023-06-04T15:09:39;4.15;;;2.50;;
9860;SDS011;4969;52.304;4.968;2023-06-04T15:12:06;5.28;;;2.10;;
9860;SDS011;4969;52.304;4.968;2023-06-04T15:14:32;4.63;;;2.50;;
9860;SDS011;4969;52.304;4.968;2023-06-04T15:17:00;4.60;;;2.22;;